Freeland, MI (48623)

10:48 AM EDT on August 30, 2015 (GMT -0400)
Mountain View | | Change Station
CLOSE
Current Station
Personal Weather Station
Location: Freeland, MI
Elevation: 608 ft
Nearby Weather Stations

Elev 608 ft 43.47 °N, 84.12 °W | Updated 19 seconds ago

Overcast
Overcast
71.6 °F
Feels Like 71.6 °F
N
0.0
Wind Variable Wind from North
Gusts 2.0 mph

Today
High -- | Low -- °F
--% Chance of Precip.
Yesterday
High -- | Low -- °F
Precip. -- in
6:57 AM 8:15 PM
Full, 99% visible
Pressure 30.08 in
Visibility 7.0 miles
Clouds Mostly Cloudy 900 ft
Overcast 2800 ft
Dew Point 68 °F
Humidity 87%
Rainfall 0.00 in
Snow Depth Not available.
UV 1 out of 12
Pollen 9.60 out of 12
Air Quality Not available.
Flu Activity Not available.
SPECI KMBS 301444Z 01003KT 7SM BKN009 OVC028 23/19 A3008 RMK AO2 CIG 007V012 T02280189
Pressure 30.08 in
Visibility 7.0 miles
Clouds Mostly Cloudy 900 ft
Overcast 2800 ft
Dew Point 68 °F
Humidity 87%
Rainfall 0.00 in
Snow Depth Not available.
UV 1 out of 12
Pollen 9.60 out of 12
Air Quality Not available.
Flu Activity Not available.
SPECI KMBS 301444Z 01003KT 7SM BKN009 OVC028 23/19 A3008 RMK AO2 CIG 007V012 T02280189

10-Day Weather Forecast

×

Almanac

Astronomy

Aug. 30, 2015 Rise Set
Actual Time
Civil Twilight
Nautical Twilight
Astronomical Twilight
Moon
Length of Visible Light
Length of Day
Tomorrow will be .
, % of the Moon is Illuminated

Today's Extremes

State Highs State Lows

Community

WunderPhotos

Upload Photos

1,850,974 photos uploaded!

WunderBlogs® & News

Nearby

Air Quality

  Air Quality AQ Index Pollutant
Not available.

Snow Depth

Station Depth Elevation

Earthquake Activity

City Distance Mag. Time & Date
Minimum magnitude displayed is 2.5.

Coastal Water Temperatures

Place Temperature

Stations

Nearby Weather Stations

Station Location Temp. Windchill Dew Point Humidity Wind Precip. Elev Updated Type